Time;durP1;ratioP1;P1;durP2;ratioP2;P2;SDS_P1;SDS_P2;PMS_P1;PMS_P2;Temp;Humidity;BMP_temperature;BMP_pressure;BME280_temperature;BME280_humidity;BME280_pressure;Samples;Min_cycle;Max_cycle;Signal;HPM_P1;HPM_P2
2022/07/02 00:03:48;;;;;;;5.10;4.60;;;;;;;16.68;84.15;99068.41;219120;1276;22704;-70
2022/07/02 00:09:00;;;;;;;4.50;4.00;;;;;;;16.64;84.40;99077.19;219187;1276;25438;-70
2022/07/02 00:14:11;;;;;;;5.60;5.00;;;;;;;16.62;84.56;99087.53;215068;1276;5390214;-70
2022/07/02 00:19:19;;;;;;;5.60;4.50;;;;;;;16.64;84.56;99097.37;219309;1276;25332;-70
2022/07/02 00:24:39;;;;;;;5.10;4.50;;;;;;;16.65;84.59;99112.10;219056;1276;22571;-70
2022/07/02 00:30:01;;;;;;;5.20;4.50;;;;;;;16.66;84.54;99105.16;219204;1276;25251;-70
2022/07/02 00:35:23;;;;;;;4.70;4.20;;;;;;;16.67;84.63;99111.17;219102;1276;25481;-70
2022/07/02 00:40:47;;;;;;;5.20;4.70;;;;;;;16.68;84.69;99113.77;219014;1276;25262;-70
2022/07/02 00:46:02;;;;;;;7.80;4.80;;;;;;;16.68;84.67;99109.52;219145;1276;25416;-70
2022/07/02 00:51:07;;;;;;;5.70;5.20;;;;;;;16.68;84.58;99089.43;219053;1276;22547;-74
2022/07/02 00:56:17;;;;;;;7.00;5.70;;;;;;;16.65;84.56;99078.73;219236;1276;22547;-71
2022/07/02 01:01:19;;;;;;;7.80;6.80;;;;;;;16.64;84.65;99082.45;219134;1276;25530;-71
2022/07/02 01:06:27;;;;;;;8.50;7.00;;;;;;;16.63;84.43;99086.21;219076;1276;22561;-70
2022/07/02 01:11:43;;;;;;;7.80;6.10;;;;;;;16.61;84.31;99099.63;219726;1276;22563;-69
2022/07/02 01:17:17;;;;;;;7.30;6.20;;;;;;;16.54;84.35;99099.73;219055;1276;24280;-70
2022/07/02 01:22:24;;;;;;;9.10;7.50;;;;;;;16.47;84.22;99102.13;219163;1276;25892;-70
2022/07/02 01:27:36;;;;;;;8.40;7.40;;;;;;;16.40;84.15;99110.08;219173;1276;22556;-69
2022/07/02 01:32:39;;;;;;;9.20;8.30;;;;;;;16.33;84.36;99123.38;219251;1277;23845;-70
2022/07/02 01:37:41;;;;;;;11.40;9.60;;;;;;;16.25;83.93;99130.54;219230;1276;25317;-70
2022/07/02 01:42:43;;;;;;;10.90;8.50;;;;;;;16.18;83.86;99138.91;219178;1277;22576;-71
2022/07/02 01:47:46;;;;;;;11.40;9.80;;;;;;;16.10;83.92;99136.45;219105;1276;26394;-70
2022/07/02 01:52:57;;;;;;;12.00;9.00;;;;;;;16.03;83.87;99135.40;219365;1276;22557;-70
2022/07/02 01:57:59;;;;;;;9.70;8.80;;;;;;;16.02;83.93;99131.84;219557;1279;24224;-70
2022/07/02 02:03:05;;;;;;;10.10;9.00;;;;;;;15.98;84.09;99135.63;219240;1276;24144;-70
2022/07/02 02:08:16;;;;;;;9.30;8.00;;;;;;;15.94;84.02;99138.81;219826;1278;23317;-70
2022/07/02 02:13:19;;;;;;;11.20;9.00;;;;;;;15.91;84.11;99136.79;219652;1276;22595;-70
2022/07/02 02:23:51;;;;;;;10.30;8.70;;;;;;;15.83;84.33;99142.11;219491;1276;23959;-70
2022/07/02 02:28:57;;;;;;;11.00;9.30;;;;;;;15.79;84.26;99130.09;219880;1276;22701;-70
2022/07/02 02:34:05;;;;;;;11.70;9.10;;;;;;;15.74;84.40;99122.86;219204;1276;25371;-69
2022/07/02 02:39:14;;;;;;;13.10;9.80;;;;;;;15.73;84.12;99124.32;219099;1276;23097;-70
2022/07/02 02:44:17;;;;;;;13.20;9.30;;;;;;;15.72;84.33;99144.38;219166;1276;22713;-71
2022/07/02 02:49:19;;;;;;;12.90;9.70;;;;;;;15.69;84.47;99144.52;219247;1276;25441;-69
2022/07/02 02:54:22;;;;;;;13.80;9.50;;;;;;;15.67;84.52;99154.06;219341;1276;25545;-70
2022/07/02 02:59:28;;;;;;;14.40;9.70;;;;;;;15.68;84.65;99168.38;219153;1278;25484;-69
2022/07/02 03:04:31;;;;;;;14.10;10.70;;;;;;;15.68;84.58;99178.41;219184;1277;25322;-70
2022/07/02 03:09:33;;;;;;;14.60;10.90;;;;;;;15.69;84.67;99175.40;219338;1277;22993;-70
2022/07/02 03:14:36;;;;;;;15.40;10.70;;;;;;;15.71;84.63;99186.48;219169;1276;24228;-70
2022/07/02 03:19:41;;;;;;;12.30;9.60;;;;;;;15.72;84.67;99187.27;219238;1276;25363;-69
2022/07/02 03:24:50;;;;;;;12.40;9.60;;;;;;;15.74;84.93;99196.60;219227;1277;23798;-70
2022/07/02 03:29:55;;;;;;;12.80;10.40;;;;;;;15.75;84.84;99196.95;219142;1276;24567;-69
2022/07/02 03:35:07;;;;;;;13.70;10.70;;;;;;;15.78;84.93;99197.05;219276;1276;25404;-70
2022/07/02 03:40:10;;;;;;;13.50;10.50;;;;;;;15.83;84.84;99203.09;219799;1276;25250;-69
2022/07/02 03:45:13;;;;;;;11.70;9.90;;;;;;;15.88;84.72;99210.83;219203;1276;24291;-70
2022/07/02 03:50:17;;;;;;;12.20;9.70;;;;;;;15.96;84.62;99214.10;219839;1276;24360;-70
2022/07/02 04:00:59;;;;;;;11.70;8.80;;;;;;;16.06;84.52;99212.50;219229;1276;25377;-69
2022/07/02 04:06:02;;;;;;;11.70;8.90;;;;;;;16.12;84.40;99220.95;219222;1276;22778;-70
2022/07/02 04:11:05;;;;;;;11.80;8.60;;;;;;;16.15;84.27;99224.04;219376;1276;22574;-69
2022/07/02 04:16:07;;;;;;;10.60;9.10;;;;;;;16.17;83.97;99224.14;219300;1276;24771;-69
2022/07/02 04:21:16;;;;;;;10.30;9.00;;;;;;;16.22;84.08;99226.98;219166;1276;25510;-71
2022/07/02 04:26:18;;;;;;;9.60;8.20;;;;;;;16.28;83.99;99232.11;219047;1278;22522;-69
2022/07/02 04:31:25;;;;;;;11.90;8.70;;;;;;;16.33;83.91;99234.22;219199;1278;22537;-70
2022/07/02 04:36:28;;;;;;;9.50;8.50;;;;;;;16.41;83.68;99235.89;219169;1277;22524;-69
2022/07/02 04:41:31;;;;;;;10.30;8.70;;;;;;;16.51;83.48;99243.91;219244;1278;26378;-70
2022/07/02 04:46:33;;;;;;;9.30;7.90;;;;;;;16.52;83.01;99243.89;219200;1278;22553;-69
2022/07/02 04:51:46;;;;;;;9.60;8.60;;;;;;;16.51;82.77;99240.99;219258;1278;23158;-69
2022/07/02 04:56:49;;;;;;;11.60;8.30;;;;;;;16.53;82.80;99243.31;219254;1278;22589;-69
2022/07/02 05:01:51;;;;;;;9.60;8.00;;;;;;;16.51;82.67;99249.55;219071;1277;22555;-70
2022/07/02 05:06:54;;;;;;;9.50;8.50;;;;;;;16.48;82.56;99248.95;219163;1277;22566;-71
2022/07/02 05:11:56;;;;;;;10.90;9.80;;;;;;;16.48;82.51;99249.86;219081;1278;24337;-70
2022/07/02 05:17:04;;;;;;;11.40;10.30;;;;;;;16.42;82.29;99257.71;219154;1281;24231;-69
2022/07/02 05:22:08;;;;;;;11.50;10.40;;;;;;;16.34;82.32;99270.19;219171;1277;22627;-70
2022/07/02 05:27:11;;;;;;;11.30;10.20;;;;;;;16.30;82.44;99279.02;219400;1278;22664;-70
2022/07/02 05:32:13;;;;;;;10.70;9.70;;;;;;;16.29;82.50;99290.56;219525;1278;22733;-69
2022/07/02 05:37:25;;;;;;;11.40;10.30;;;;;;;16.23;82.29;99296.02;219113;1277;23246;-70
2022/07/02 05:42:28;;;;;;;9.90;8.90;;;;;;;16.17;82.38;99309.48;219365;1278;22568;-69
2022/07/02 05:47:31;;;;;;;9.50;8.60;;;;;;;16.12;82.35;99314.11;219101;1277;24420;-70
2022/07/02 05:52:33;;;;;;;11.90;10.50;;;;;;;16.04;82.34;99335.62;219294;1278;25292;-70
2022/07/02 05:57:36;;;;;;;12.00;10.50;;;;;;;15.97;82.50;99342.52;219218;1277;22567;-69
2022/07/02 06:02:39;;;;;;;11.60;10.30;;;;;;;15.92;82.74;99350.69;219192;1277;22713;-70
2022/07/02 06:07:43;;;;;;;10.60;9.50;;;;;;;15.89;82.67;99361.14;219286;1278;22581;-69
2022/07/02 06:12:50;;;;;;;9.80;8.90;;;;;;;15.90;82.79;99372.67;219155;1278;22838;-69
2022/07/02 06:17:52;;;;;;;9.60;8.70;;;;;;;15.92;82.69;99372.08;219331;1278;22634;-69
2022/07/02 06:22:55;;;;;;;9.00;8.20;;;;;;;15.94;82.85;99366.86;219153;1278;22561;-69
2022/07/02 06:27:57;;;;;;;8.10;7.30;;;;;;;16.01;82.87;99367.11;219112;1278;25352;-69
2022/07/02 06:33:03;;;;;;;8.00;7.20;;;;;;;16.08;82.75;99378.91;219146;1277;22553;-70
2022/07/02 06:38:07;;;;;;;7.50;6.00;;;;;;;16.13;82.41;99382.70;219079;1278;22559;-69
2022/07/02 06:43:09;;;;;;;7.70;7.00;;;;;;;16.16;82.45;99389.48;219236;1277;22759;-68
2022/07/02 06:48:11;;;;;;;7.40;6.70;;;;;;;16.21;82.33;99398.73;219097;1277;22534;-69
2022/07/02 06:53:15;;;;;;;6.30;5.70;;;;;;;16.23;82.12;99398.90;219131;1276;23173;-70
2022/07/02 06:58:31;;;;;;;7.20;6.50;;;;;;;16.29;82.18;99408.65;218774;1277;28069;-71
2022/07/02 07:03:53;;;;;;;53.60;10.40;;;;;;;16.41;82.22;99415.42;220415;1276;24342;-69
2022/07/02 07:08:56;;;;;;;6.30;5.80;;;;;;;16.60;82.02;99421.61;220315;1277;26362;-71
2022/07/02 07:14:11;;;;;;;5.60;5.20;;;;;;;16.71;81.39;99431.70;220238;1276;22704;-72
2022/07/02 07:19:18;;;;;;;6.60;6.00;;;;;;;16.77;81.00;99431.70;220218;1278;25380;-72
2022/07/02 07:24:33;;;;;;;5.90;5.40;;;;;;;16.82;80.84;99437.95;220337;1277;22621;-72
2022/07/02 07:29:58;;;;;;;8.50;7.00;;;;;;;16.87;80.67;99439.98;220185;1277;22538;-72
2022/07/02 07:35:00;;;;;;;9.30;8.40;;;;;;;16.89;80.45;99442.04;220148;1276;24368;-71
2022/07/02 07:40:05;;;;;;;7.90;7.20;;;;;;;16.94;80.22;99443.01;220232;1276;24310;-71
2022/07/02 07:45:08;;;;;;;8.90;8.10;;;;;;;16.95;80.13;99445.55;220261;1276;22547;-71
2022/07/02 07:50:10;;;;;;;10.60;9.60;;;;;;;16.91;79.89;99449.90;220251;1276;22594;-71
2022/07/02 07:55:13;;;;;;;11.40;10.20;;;;;;;16.80;79.92;99456.09;220218;1277;22561;-71
2022/07/02 08:00:19;;;;;;;11.70;10.40;;;;;;;16.76;79.96;99455.76;219746;1276;22582;-69
2022/07/02 08:05:21;;;;;;;13.30;12.00;;;;;;;16.69;79.84;99453.27;218820;1276;22569;-69
2022/07/02 08:10:24;;;;;;;12.20;11.10;;;;;;;16.77;80.03;99455.46;218826;1276;22573;-69
2022/07/02 08:15:31;;;;;;;12.10;10.90;;;;;;;16.88;80.06;99453.81;218918;1276;23540;-69
2022/07/02 08:20:43;;;;;;;10.70;9.60;;;;;;;17.07;79.95;99450.74;218865;1276;24425;-71
2022/07/02 08:26:04;;;;;;;11.20;9.80;;;;;;;17.51;80.07;99450.67;220136;1276;24597;-69
2022/07/02 08:31:19;;;;;;;10.70;9.70;;;;;;;17.81;78.70;99463.75;218518;1276;22636;-69
2022/07/02 08:36:44;;;;;;;11.30;9.00;;;;;;;17.87;78.16;99470.51;218533;1277;22573;-70
2022/07/02 08:41:52;;;;;;;9.50;8.60;;;;;;;17.92;77.80;99473.62;219175;1276;23460;-69
2022/07/02 08:46:59;;;;;;;9.10;8.20;;;;;;;17.99;77.55;99466.57;218614;1276;22551;-70
2022/07/02 08:52:07;;;;;;;7.60;6.80;;;;;;;18.06;77.28;99471.39;218912;1276;22478;-70
2022/07/02 08:57:12;;;;;;;6.90;6.30;;;;;;;18.29;77.15;99479.52;218417;1276;22630;-70
2022/07/02 09:02:18;;;;;;;6.10;5.60;;;;;;;18.68;77.04;99485.74;220399;1276;22653;-69
2022/07/02 09:07:21;;;;;;;6.90;5.30;;;;;;;19.12;75.98;99484.42;218760;1276;24290;-71
2022/07/02 09:12:25;;;;;;;6.10;5.50;;;;;;;19.32;74.84;99485.35;220123;1277;24383;-70
2022/07/02 09:17:30;;;;;;;7.10;6.20;;;;;;;19.44;74.34;99494.23;220315;1276;24245;-71
2022/07/02 09:22:35;;;;;;;8.30;6.20;;;;;;;19.64;73.72;99497.35;220407;1278;22586;-70
2022/07/02 09:27:38;;;;;;;7.10;6.10;;;;;;;19.58;72.97;99498.06;220290;1276;25463;-71
2022/07/02 09:32:42;;;;;;;7.20;6.00;;;;;;;19.37;72.54;99495.70;220413;1276;24231;-71
2022/07/02 09:37:49;;;;;;;7.30;6.00;;;;;;;19.19;72.40;99496.16;220095;1276;22582;-71
2022/07/02 09:42:52;;;;;;;5.90;5.20;;;;;;;19.18;72.89;99499.75;220300;1276;22567;-75
2022/07/02 09:48:03;;;;;;;5.60;5.10;;;;;;;19.22;72.83;99505.05;220154;1276;22679;-72
2022/07/02 09:53:15;;;;;;;5.90;5.40;;;;;;;19.27;72.77;99499.73;219953;1276;22477;-72
2022/07/02 09:58:25;;;;;;;5.30;4.80;;;;;;;19.24;72.38;99503.65;219917;1276;24276;-72
2022/07/02 10:03:28;;;;;;;5.80;4.10;;;;;;;19.18;72.37;99506.30;219996;1276;25410;-72
2022/07/02 10:08:32;;;;;;;5.90;3.50;;;;;;;19.31;72.72;99502.99;220167;1276;22753;-71
2022/07/02 10:13:36;;;;;;;3.60;3.30;;;;;;;19.66;72.23;99503.75;220219;1276;23155;-72
2022/07/02 10:18:42;;;;;;;3.60;3.30;;;;;;;19.92;71.09;99506.42;220024;1276;22556;-70
2022/07/02 10:23:46;;;;;;;3.80;3.50;;;;;;;20.19;70.46;99508.73;219037;1276;22598;-70
2022/07/02 10:28:49;;;;;;;3.80;3.40;;;;;;;20.59;69.79;99505.58;220181;1276;25423;-70
2022/07/02 10:34:05;;;;;;;5.00;4.60;;;;;;;21.06;68.94;99507.44;220183;1276;22655;-71
2022/07/02 10:39:08;;;;;;;3.30;3.10;;;;;;;21.59;68.26;99506.79;220087;1276;24329;-71
2022/07/02 10:44:10;;;;;;;3.40;3.10;;;;;;;21.80;66.55;99507.73;220058;1276;22490;-69
2022/07/02 10:49:26;;;;;;;3.70;3.40;;;;;;;21.56;65.74;99513.34;218491;1276;25258;-69
2022/07/02 10:54:47;;;;;;;4.30;3.50;;;;;;;21.20;65.82;99515.27;218629;1276;22624;-69
2022/07/02 10:59:50;;;;;;;3.80;3.50;;;;;;;21.09;66.31;99509.77;218579;1276;26011;-70
2022/07/02 11:04:52;;;;;;;4.10;3.50;;;;;;;21.12;66.24;99511.88;219961;1276;25528;-70
2022/07/02 11:10:05;;;;;;;3.90;3.60;;;;;;;21.17;66.06;99511.75;219926;1276;22699;-71
2022/07/02 11:15:18;;;;;;;6.60;5.90;;;;;;;21.02;65.49;99504.42;219868;1276;22556;-70
2022/07/02 11:20:26;;;;;;;4.70;4.30;;;;;;;20.90;65.84;99511.14;218914;1276;22701;-71
2022/07/02 11:25:30;;;;;;;5.70;5.20;;;;;;;20.80;65.90;99507.23;219750;1276;22551;-70
2022/07/02 11:30:33;;;;;;;4.60;3.80;;;;;;;20.78;65.93;99507.09;218919;1276;25400;-70
2022/07/02 11:35:35;;;;;;;2.80;2.60;;;;;;;20.89;65.94;99500.61;219019;1276;22783;-71
2022/07/02 11:40:40;;;;;;;2.70;2.50;;;;;;;20.98;65.42;99504.63;218903;1276;23698;-70
2022/07/02 11:45:48;;;;;;;3.80;2.70;;;;;;;21.10;65.52;99511.70;218889;1276;22572;-69
2022/07/02 11:51:00;;;;;;;2.70;2.50;;;;;;;21.35;64.97;99510.11;218956;1276;22584;-69
2022/07/02 11:56:19;;;;;;;2.00;1.90;;;;;;;21.56;64.31;99514.90;218941;1276;22568;-69
2022/07/02 12:01:29;;;;;;;2.20;2.00;;;;;;;21.69;63.73;99510.14;218945;1276;23969;-70
2022/07/02 12:06:35;;;;;;;1.90;1.80;;;;;;;21.88;63.38;99509.05;219118;1276;24480;-70
2022/07/02 12:11:44;;;;;;;2.00;1.90;;;;;;;22.17;63.26;99510.06;219331;1276;22566;-71
2022/07/02 12:16:58;;;;;;;2.10;1.80;;;;;;;22.46;62.76;99506.11;218771;1276;668162;-70
2022/07/02 12:22:05;;;;;;;2.10;1.70;;;;;;;22.64;62.23;99508.98;219786;1276;22588;-71
2022/07/02 12:27:09;;;;;;;1.50;1.40;;;;;;;22.75;61.72;99511.52;219074;1276;22577;-70
2022/07/02 12:32:13;;;;;;;1.60;1.50;;;;;;;22.83;60.84;99513.20;219887;1276;24549;-70
2022/07/02 12:37:26;;;;;;;1.70;1.60;;;;;;;22.86;60.35;99511.93;219872;1276;25411;-72
2022/07/02 12:42:32;;;;;;;2.10;1.60;;;;;;;22.82;60.12;99513.96;219159;1276;24353;-71
2022/07/02 12:47:37;;;;;;;1.70;1.60;;;;;;;22.64;60.14;99506.41;219995;1276;24387;-71
2022/07/02 12:52:48;;;;;;;2.00;1.80;;;;;;;22.38;59.96;99510.66;219954;1276;22753;-71
2022/07/02 12:57:55;;;;;;;2.10;1.70;;;;;;;22.07;60.14;99507.40;219776;1276;22562;-69
2022/07/02 13:03:12;;;;;;;2.00;1.70;;;;;;;21.98;60.45;99505.60;219123;1276;23039;-71
2022/07/02 13:08:26;;;;;;;1.40;1.30;;;;;;;22.18;60.33;99506.90;219150;1276;22578;-69
2022/07/02 13:13:28;;;;;;;1.30;1.30;;;;;;;22.55;60.21;99498.85;219216;1276;24375;-70
2022/07/02 13:18:37;;;;;;;1.70;1.60;;;;;;;22.97;59.42;99495.18;219214;1276;22561;-72
2022/07/02 13:23:40;;;;;;;2.60;2.40;;;;;;;23.28;58.93;99492.95;220102;1276;22616;-70
2022/07/02 13:28:43;;;;;;;1.80;1.70;;;;;;;23.76;58.01;99488.73;220013;1276;24173;-71
2022/07/02 13:33:46;;;;;;;1.70;1.60;;;;;;;24.22;57.40;99487.92;220037;1276;25267;-70
2022/07/02 13:38:51;;;;;;;1.60;1.50;;;;;;;24.36;55.70;99486.77;219808;1276;22711;-71
2022/07/02 13:43:53;;;;;;;2.00;1.60;;;;;;;24.36;55.33;99488.02;219881;1276;22565;-69
2022/07/02 13:48:59;;;;;;;1.70;1.40;;;;;;;24.26;54.95;99488.23;219014;1276;22635;-70
2022/07/02 13:54:01;;;;;;;1.80;1.60;;;;;;;24.33;55.16;99482.25;218977;1276;22566;-71
2022/07/02 13:59:30;;;;;;;2.20;1.60;;;;;;;24.59;54.97;99481.71;219751;1276;22560;-71
2022/07/02 14:04:52;;;;;;;1.80;1.50;;;;;;;24.50;54.15;99480.28;219793;1276;25340;-71
2022/07/02 14:09:55;;;;;;;1.60;1.50;;;;;;;24.20;54.15;99482.34;219147;1276;22878;-70
2022/07/02 14:15:22;;;;;;;1.90;1.60;;;;;;;24.02;54.38;99477.17;218994;1276;25328;-71
2022/07/02 14:20:24;;;;;;;2.00;1.80;;;;;;;24.11;54.93;99474.52;219167;1276;25306;-70
2022/07/02 14:25:44;;;;;;;1.50;1.40;;;;;;;24.37;54.71;99471.47;219899;1276;25365;-70
2022/07/02 14:30:57;;;;;;;2.10;1.50;;;;;;;24.49;53.70;99473.77;219851;1276;22718;-70
2022/07/02 14:36:02;;;;;;;1.80;1.20;;;;;;;24.38;52.63;99466.62;219670;1276;22526;-71
2022/07/02 14:46:39;;;;;;;1.30;1.20;;;;;;;24.62;51.78;99457.02;219717;1276;22617;-70
2022/07/02 14:51:46;;;;;;;1.90;1.60;;;;;;;24.66;51.16;99454.61;219755;1276;22569;-71
2022/07/02 14:56:48;;;;;;;2.10;1.40;;;;;;;24.62;51.36;99450.63;219774;1276;25395;-70
2022/07/02 15:01:51;;;;;;;1.50;1.40;;;;;;;24.68;51.82;99448.69;219115;1276;25385;-71
2022/07/02 15:07:26;;;;;;;1.50;1.40;;;;;;;24.66;51.49;99440.05;219854;1276;22735;-71
2022/07/02 15:12:50;;;;;;;1.60;1.50;;;;;;;24.67;51.71;99436.69;219885;1276;22583;-72
2022/07/02 15:17:52;;;;;;;1.50;1.30;;;;;;;24.65;51.43;99434.95;219012;1276;25366;-70
2022/07/02 15:23:09;;;;;;;1.30;1.30;;;;;;;24.74;51.51;99436.42;218968;1276;22624;-70
2022/07/02 15:28:36;;;;;;;1.70;1.60;;;;;;;24.93;51.83;99426.05;219220;1276;22945;-70
2022/07/02 15:33:40;;;;;;;3.20;2.90;;;;;;;25.11;51.58;99425.98;219066;1276;22544;-69
2022/07/02 15:38:56;;;;;;;1.70;1.50;;;;;;;25.38;51.11;99416.80;219139;1276;22684;-70
2022/07/02 15:44:06;;;;;;;1.20;1.10;;;;;;;25.54;50.46;99411.13;219151;1276;23130;-70
2022/07/02 15:49:08;;;;;;;1.60;1.50;;;;;;;25.52;49.66;99411.02;219190;1276;22538;-70
2022/07/02 15:54:19;;;;;;;1.20;1.20;;;;;;;25.16;49.72;99404.36;220076;1276;22571;-71
2022/07/02 15:59:27;;;;;;;1.70;1.60;;;;;;;24.95;49.71;99399.14;219823;1276;23791;-71
2022/07/02 16:04:51;;;;;;;1.40;1.30;;;;;;;24.61;49.81;99393.79;219936;1276;22544;-70
2022/07/02 16:09:58;;;;;;;1.40;1.30;;;;;;;24.31;50.23;99394.92;219895;1276;24319;-70
2022/07/02 16:15:04;;;;;;;1.70;1.10;;;;;;;24.22;50.67;99392.60;219846;1278;22563;-70
2022/07/02 16:20:23;;;;;;;0.90;0.90;;;;;;;24.07;50.33;99394.08;219158;1276;23454;-70
2022/07/02 16:25:29;;;;;;;0.80;0.80;;;;;;;23.95;49.68;99389.00;219927;1276;22701;-70
2022/07/02 16:31:05;;;;;;;1.40;0.80;;;;;;;23.84;49.85;99385.02;219815;1276;24263;-72
2022/07/02 16:36:24;;;;;;;0.90;0.70;;;;;;;23.69;49.76;99380.52;219729;1276;22485;-70
2022/07/02 16:41:58;;;;;;;1.20;0.90;;;;;;;23.62;49.87;99377.81;219763;1276;23064;-70
2022/07/02 16:47:52;;;;;;;0.90;0.60;;;;;;;23.65;50.00;99374.05;219669;1277;22576;-71
2022/07/02 16:53:32;;;;;;;1.10;0.90;;;;;;;23.67;49.89;99375.10;219882;1276;24285;-71
2022/07/02 16:59:12;;;;;;;1.00;1.00;;;;;;;23.46;49.48;99382.83;219841;1276;24292;-70
2022/07/02 17:04:25;;;;;;;0.80;0.70;;;;;;;23.17;50.07;99381.05;219800;1276;24235;-70
2022/07/02 17:09:52;;;;;;;0.80;0.80;;;;;;;23.00;50.49;99376.86;219966;1276;22562;-70
2022/07/02 17:14:54;;;;;;;0.90;0.80;;;;;;;23.76;51.57;99367.43;219723;1276;22541;-70
2022/07/02 17:20:02;;;;;;;0.70;0.70;;;;;;;25.54;50.30;99369.02;219708;1276;22575;-71
2022/07/02 17:25:08;;;;;;;1.10;1.00;;;;;;;25.66;47.57;99373.48;219758;1276;22574;-71
2022/07/02 17:30:28;;;;;;;1.10;1.00;;;;;;;24.93;47.43;99368.34;219806;1276;22562;-70
2022/07/02 17:35:33;;;;;;;1.50;1.40;;;;;;;24.20;48.02;99367.38;219727;1276;24338;-70
2022/07/02 17:40:36;;;;;;;1.60;1.00;;;;;;;23.59;48.96;99362.67;219906;1276;22543;-71
2022/07/02 17:45:39;;;;;;;1.00;0.90;;;;;;;23.17;49.68;99364.58;219759;1276;22541;-71
2022/07/02 17:50:44;;;;;;;1.20;1.10;;;;;;;22.82;50.22;99360.40;219817;1276;22585;-71
2022/07/02 17:55:48;;;;;;;2.50;1.90;;;;;;;22.56;50.74;99362.75;219898;1276;22626;-72
2022/07/02 18:00:53;;;;;;;1.70;1.10;;;;;;;22.29;51.19;99360.55;219856;1276;22609;-72
2022/07/02 18:05:55;;;;;;;1.80;1.20;;;;;;;22.04;51.72;99356.73;219834;1276;22573;-71
2022/07/02 18:11:02;;;;;;;1.30;0.90;;;;;;;21.79;52.17;99354.38;219854;1276;24276;-70
2022/07/02 18:16:05;;;;;;;1.10;1.00;;;;;;;21.54;52.86;99349.33;220019;1276;23153;-71
2022/07/02 18:21:09;;;;;;;1.40;1.30;;;;;;;21.31;53.57;99344.95;219910;1276;24320;-71
2022/07/02 18:26:14;;;;;;;1.60;1.30;;;;;;;21.06;54.27;99340.52;219735;1276;22638;-71
2022/07/02 18:31:41;;;;;;;2.10;1.40;;;;;;;20.75;55.15;99339.38;219871;1276;22679;-70
2022/07/02 18:37:30;;;;;;;3.60;1.60;;;;;;;20.40;56.05;99337.35;220046;1276;22689;-71
2022/07/02 18:42:41;;;;;;;2.70;1.70;;;;;;;20.11;56.84;99337.58;219846;1276;22718;-70
2022/07/02 18:47:44;;;;;;;1.90;1.70;;;;;;;19.86;57.52;99334.08;219950;1276;22806;-71
2022/07/02 18:52:47;;;;;;;2.20;1.70;;;;;;;19.61;58.17;99331.27;219820;1277;22631;-70
2022/07/02 18:57:58;;;;;;;2.60;1.60;;;;;;;19.36;58.89;99330.04;219221;1277;24311;-70
2022/07/02 19:03:04;;;;;;;2.00;1.80;;;;;;;19.14;59.36;99324.51;219882;1276;25339;-71
2022/07/02 19:08:10;;;;;;;2.10;1.60;;;;;;;18.92;60.08;99329.14;219901;1277;25914;-70
2022/07/02 19:13:13;;;;;;;2.70;1.90;;;;;;;18.71;60.62;99328.52;219881;1276;25344;-70
2022/07/02 19:18:15;;;;;;;2.50;1.70;;;;;;;18.53;61.11;99327.23;219767;1276;26397;-71
2022/07/02 19:23:20;;;;;;;2.10;1.80;;;;;;;18.36;61.66;99330.92;219699;1276;26397;-71
2022/07/02 19:33:55;;;;;;;3.80;2.30;;;;;;;18.08;62.60;99329.92;219819;1276;25545;-70
2022/07/02 19:39:01;;;;;;;4.60;3.40;;;;;;;17.94;62.95;99326.52;219809;1276;24631;-70
2022/07/02 19:44:31;;;;;;;3.90;2.70;;;;;;;17.81;63.40;99325.77;219794;1276;25298;-71
2022/07/02 19:49:43;;;;;;;4.60;2.90;;;;;;;17.66;63.95;99321.91;219716;1279;22718;-71
2022/07/02 19:54:48;;;;;;;2.90;2.70;;;;;;;17.57;64.38;99317.35;219961;1276;25407;-71
2022/07/02 19:59:51;;;;;;;3.80;3.30;;;;;;;17.43;64.60;99315.36;219840;1276;22555;-71
2022/07/02 20:05:09;;;;;;;4.90;3.40;;;;;;;17.29;65.03;99316.36;219950;1276;22718;-71
2022/07/02 20:10:13;;;;;;;3.40;3.10;;;;;;;17.15;65.50;99309.11;219350;1276;23819;-70
2022/07/02 20:15:19;;;;;;;4.30;3.50;;;;;;;17.00;65.97;99314.48;219723;1276;22653;-70
2022/07/02 20:20:22;;;;;;;4.00;3.60;;;;;;;16.86;66.36;99314.17;219726;1276;22580;-70
2022/07/02 20:25:25;;;;;;;4.70;3.60;;;;;;;16.73;66.85;99311.09;219678;1276;25980;-70
2022/07/02 20:30:27;;;;;;;3.90;3.60;;;;;;;16.63;67.29;99314.09;218917;1276;25367;-70
2022/07/02 20:35:30;;;;;;;4.50;4.10;;;;;;;16.54;67.75;99324.04;219343;1276;25358;-71
2022/07/02 20:40:34;;;;;;;4.40;4.00;;;;;;;16.49;68.27;99330.42;219849;1276;24278;-70
2022/07/02 20:45:36;;;;;;;6.10;5.50;;;;;;;16.43;68.61;99332.55;219879;1276;22604;-70
2022/07/02 20:50:38;;;;;;;5.90;5.40;;;;;;;16.38;69.04;99331.69;219816;1276;22565;-71
2022/07/02 20:55:43;;;;;;;7.30;6.60;;;;;;;16.32;69.38;99325.46;219513;1276;24311;-71
2022/07/02 21:00:46;;;;;;;8.20;6.10;;;;;;;16.28;69.73;99327.67;219660;1276;24286;-70
2022/07/02 21:05:54;;;;;;;7.30;6.60;;;;;;;16.24;70.16;99331.45;219695;1276;23025;-71
2022/07/02 21:10:56;;;;;;;6.90;6.20;;;;;;;16.23;70.57;99328.35;219469;1281;22679;-71
2022/07/02 21:16:02;;;;;;;7.60;5.70;;;;;;;16.15;70.55;99333.70;219774;1279;22797;-70
2022/07/02 21:21:07;;;;;;;20.70;17.50;;;;;;;16.04;70.67;99337.12;219847;1277;25254;-70
2022/07/02 21:26:09;;;;;;;22.30;19.20;;;;;;;15.95;70.89;99334.50;219742;1276;24550;-71
2022/07/02 21:31:11;;;;;;;12.00;10.70;;;;;;;15.86;71.30;99332.80;219717;1276;22564;-70
2022/07/02 21:36:14;;;;;;;8.50;7.60;;;;;;;15.76;71.66;99327.45;219741;1276;22548;-71
2022/07/02 21:41:17;;;;;;;7.40;6.70;;;;;;;15.68;72.00;99326.02;219760;1276;22576;-70
2022/07/02 21:46:19;;;;;;;7.10;6.50;;;;;;;15.62;72.38;99320.68;219819;1276;22797;-70
2022/07/02 21:51:22;;;;;;;7.60;6.80;;;;;;;15.56;72.66;99313.85;219884;1276;24235;-71
2022/07/02 21:56:24;;;;;;;6.70;6.10;;;;;;;15.51;72.99;99311.37;219960;1276;22537;-70
2022/07/02 22:01:26;;;;;;;7.00;6.30;;;;;;;15.48;73.34;99315.89;219790;1276;25309;-71
2022/07/02 22:06:32;;;;;;;7.50;6.70;;;;;;;15.43;73.61;99312.08;219755;1276;25331;-70
2022/07/02 22:11:34;;;;;;;7.00;6.40;;;;;;;15.38;73.89;99305.29;219723;1276;22564;-71
2022/07/02 22:16:37;;;;;;;7.80;7.00;;;;;;;15.33;74.13;99306.90;219690;1279;24161;-70
2022/07/02 22:21:45;;;;;;;8.10;7.30;;;;;;;15.29;74.46;99310.02;219851;1276;25417;-70
2022/07/02 22:26:48;;;;;;;8.10;7.40;;;;;;;15.27;74.94;99308.21;219795;1278;24344;-70
2022/07/02 22:31:55;;;;;;;8.30;7.50;;;;;;;15.26;75.04;99301.73;219160;1276;25002;-70
2022/07/02 22:37:02;;;;;;;10.10;9.00;;;;;;;15.22;75.30;99300.31;219855;1276;24432;-71
2022/07/02 22:42:12;;;;;;;10.70;9.30;;;;;;;15.18;75.55;99296.25;219853;1276;24378;-70
2022/07/02 22:47:14;;;;;;;10.60;9.50;;;;;;;15.13;75.55;99292.90;219000;1277;22989;-71
2022/07/02 22:52:17;;;;;;;10.40;9.30;;;;;;;15.07;75.88;99286.89;219048;1276;23064;-71
2022/07/02 22:57:19;;;;;;;10.10;9.10;;;;;;;15.01;76.19;99278.51;218995;1276;22586;-70
2022/07/02 23:02:22;;;;;;;11.90;10.10;;;;;;;14.96;76.44;99273.77;219793;1277;22545;-71
2022/07/02 23:07:24;;;;;;;10.50;9.50;;;;;;;14.92;76.67;99272.61;219809;1276;24211;-69
2022/07/02 23:12:33;;;;;;;11.20;9.60;;;;;;;14.84;76.64;99269.83;219137;1278;22630;-71
2022/07/02 23:17:38;;;;;;;12.00;10.90;;;;;;;14.75;76.56;99266.64;219757;1278;22609;-70
2022/07/02 23:22:43;;;;;;;11.20;9.80;;;;;;;14.64;76.93;99258.60;219651;1276;22543;-71
2022/07/02 23:27:45;;;;;;;12.10;10.80;;;;;;;14.55;77.19;99250.10;219834;1276;22568;-70
2022/07/02 23:32:48;;;;;;;12.70;10.60;;;;;;;14.48;77.52;99243.08;219780;1278;24266;-70
2022/07/02 23:38:00;;;;;;;11.70;10.50;;;;;;;14.39;77.66;99240.20;219638;1278;22574;-70
2022/07/02 23:43:05;;;;;;;12.20;10.30;;;;;;;14.29;77.75;99236.35;219006;1278;22562;-69
2022/07/02 23:48:08;;;;;;;12.20;11.00;;;;;;;14.18;78.12;99230.55;219185;1278;24139;-71
2022/07/02 23:53:11;;;;;;;13.00;11.50;;;;;;;14.08;78.36;99228.53;219823;1278;22580;-70
2022/07/02 23:58:14;;;;;;;13.30;11.90;;;;;;;14.00;78.72;99226.54;219872;1277;22724;-71
